Whitley Bay, United Kingdom
Current Conditions -  °F | °C
As of 12:20 AM on Sunday 26 Oct 2014 (Local Time) from EGNT Reporting Station
Scattered Clouds Scattered Clouds  
Wind Chill: 55°   Ceiling: Unl
Heat Index: 55°   Visibility: 6mi
Dew Point: 43°   Wind: 17mph
Humidity: 63%   Direction: 230°SW
Pressure: 29.8"   Gusts: NA
Location:  55.04°N, 1.45°W
Report Text: EGNT 252320Z 23015KT 9999 SCT046 13/06 Q1009
Loading
Personal Weather Stations






























Interactive Weather Map
Tropical Storm Tracking
New forecast layout! Learn more

10-Day Weather Forecast

Advertisements
Track Severe Weather on mobile